Time;durP1;ratioP1;P1;durP2;ratioP2;P2;SDS_P1;SDS_P2;PMS_P1;PMS_P2;Temp;Humidity;BMP_temperature;BMP_pressure;BME280_temperature;BME280_humidity;BME280_pressure;Samples;Min_cycle;Max_cycle;Signal;HPM_P1;HPM_P2
2022/01/06 00:01:44;;;;;;;21.75;1.77;;;4.50;99.90;;;;;;5067134;28;20407;-80
2022/01/06 00:04:10;;;;;;;12.93;1.67;;;4.10;99.90;;;;;;5051972;28;20490;-80
2022/01/06 00:06:39;;;;;;;12.30;1.55;;;5.10;99.90;;;;;;5067733;28;20123;-80
2022/01/06 00:09:06;;;;;;;6.72;0.90;;;4.10;99.90;;;;;;5052236;28;20055;-80
2022/01/06 00:11:32;;;;;;;12.95;1.02;;;4.10;99.90;;;;;;5050535;28;20131;-80
2022/01/06 00:14:12;;;;;;;15.93;1.23;;;4.10;99.90;;;;;;5068119;28;20123;-80
2022/01/06 00:17:04;;;;;;;14.73;1.20;;;4.00;99.90;;;;;;5067922;28;20091;-80
2022/01/06 00:24:52;;;;;;;8.98;1.38;;;4.00;99.90;;;;;;5067521;28;20445;-80
2022/01/06 00:27:17;;;;;;;18.02;2.45;;;5.50;99.90;;;;;;5067213;28;20140;-80
2022/01/06 00:29:43;;;;;;;12.93;1.58;;;3.90;99.90;;;;;;5067723;28;20384;-80
2022/01/06 00:32:09;;;;;;;11.90;2.15;;;3.90;99.90;;;;;;5083697;28;20055;-80
2022/01/06 00:34:36;;;;;;;12.07;1.83;;;4.20;99.90;;;;;;5086240;28;20051;-80
2022/01/06 00:37:02;;;;;;;21.33;1.83;;;3.80;99.90;;;;;;5085233;28;20047;-81
2022/01/06 00:39:29;;;;;;;20.00;1.73;;;3.80;99.90;;;;;;5067074;28;20123;-80
2022/01/06 00:42:01;;;;;;;19.98;1.88;;;3.70;99.90;;;;;;5067561;28;20036;-80
2022/01/06 00:44:27;;;;;;;17.33;1.85;;;3.70;99.90;;;;;;5085311;28;20060;-80
2022/01/06 00:46:54;;;;;;;14.98;2.10;;;3.70;99.90;;;;;;5066943;28;20176;-80
2022/01/06 00:49:22;;;;;;;15.90;2.20;;;3.60;99.90;;;;;;5083763;28;20596;-80
2022/01/06 00:51:48;;;;;;;18.45;1.90;;;3.60;99.90;;;;;;5067078;28;20050;-80
2022/01/06 00:54:14;;;;;;;12.52;1.80;;;5.40;99.90;;;;;;5085049;28;20036;-80
2022/01/06 00:56:40;;;;;;;19.00;1.60;;;3.40;99.90;;;;;;5085309;28;20070;-81
2022/01/06 00:59:06;;;;;;;12.77;1.50;;;3.40;99.90;;;;;;5085349;28;20032;-80
2022/01/06 01:01:32;;;;;;;25.60;1.90;;;3.30;99.90;;;;;;5084656;28;20535;-80
2022/01/06 01:03:58;;;;;;;10.73;2.15;;;3.50;99.90;;;;;;5085209;28;20048;-80
2022/01/06 01:06:24;;;;;;;18.08;1.77;;;3.30;99.90;;;;;;5066514;28;20040;-80
2022/01/06 01:08:50;;;;;;;8.20;1.42;;;3.20;99.90;;;;;;5050682;28;20047;-80
2022/01/06 01:11:15;;;;;;;16.95;1.20;;;4.80;99.90;;;;;;5084195;28;20093;-80
2022/01/06 01:14:06;;;;;;;4.50;1.08;;;3.20;99.90;;;;;;5066784;28;20058;-80
2022/01/06 01:16:33;;;;;;;7.75;0.80;;;3.20;99.90;;;;;;5070576;28;20051;-80
2022/01/06 01:19:03;;;;;;;8.07;0.63;;;3.20;99.90;;;;;;5065977;28;20044;-80
2022/01/06 01:21:29;;;;;;;17.25;1.35;;;3.30;99.90;;;;;;5067504;28;20427;-80
2022/01/06 01:23:56;;;;;;;11.20;0.82;;;3.20;99.90;;;;;;5065561;28;20046;-80
2022/01/06 01:26:23;;;;;;;14.38;1.80;;;3.30;99.90;;;;;;5049609;28;20525;-80
2022/01/06 01:28:51;;;;;;;14.48;1.10;;;3.30;99.90;;;;;;5065818;28;20127;-80
2022/01/06 01:33:45;;;;;;;13.07;1.52;;;4.60;99.90;;;;;;5066706;28;20040;-80
2022/01/06 01:36:12;;;;;;;7.78;0.85;;;3.30;99.90;;;;;;5048636;28;20040;-80
2022/01/06 01:38:39;;;;;;;10.95;2.53;;;3.30;99.90;;;;;;5066537;28;20119;-80
2022/01/06 01:41:06;;;;;;;12.60;1.20;;;3.20;99.90;;;;;;5066072;28;20135;-80
2022/01/06 01:43:32;;;;;;;8.40;1.10;;;3.20;99.90;;;;;;5084677;28;20044;-80
2022/01/06 01:46:07;;;;;;;10.82;1.67;;;3.20;99.90;;;;;;5049283;28;20441;-80
2022/01/06 01:48:35;;;;;;;6.38;1.10;;;3.20;99.90;;;;;;5066265;28;20484;-80
2022/01/06 01:51:01;;;;;;;7.85;2.25;;;3.20;99.90;;;;;;5066619;28;20524;-80
2022/01/06 01:53:27;;;;;;;6.88;0.70;;;3.50;99.90;;;;;;5065161;28;20036;-80
2022/01/06 01:55:53;;;;;;;8.50;1.10;;;3.30;99.90;;;;;;5082961;28;20088;-80
2022/01/06 01:58:20;;;;;;;14.30;0.90;;;3.20;99.90;;;;;;5083332;28;20048;-80
2022/01/06 02:00:47;;;;;;;6.57;0.70;;;3.30;99.90;;;;;;5084244;28;20048;-80
2022/01/06 02:03:12;;;;;;;9.75;0.93;;;3.30;99.90;;;;;;5084193;28;20059;-80
2022/01/06 02:05:38;;;;;;;8.98;1.15;;;3.50;99.90;;;;;;5083875;28;20048;-80
2022/01/06 02:08:05;;;;;;;6.57;0.63;;;3.30;99.90;;;;;;5084555;28;20040;-80
2022/01/06 02:10:32;;;;;;;6.22;0.65;;;3.30;99.90;;;;;;5083371;28;20117;-80
2022/01/06 02:13:00;;;;;;;8.60;0.63;;;3.20;99.90;;;;;;5066203;28;20162;-80
2022/01/06 02:15:26;;;;;;;7.97;0.85;;;3.20;99.90;;;;;;5083516;28;20040;-80
2022/01/06 02:17:55;;;;;;;3.20;0.75;;;3.10;99.90;;;;;;5084162;28;20036;-80
2022/01/06 02:20:22;;;;;;;11.93;0.82;;;4.10;99.90;;;;;;5083962;28;20040;-80
2022/01/06 02:22:50;;;;;;;3.35;0.55;;;3.10;99.90;;;;;;5082879;28;20445;-80
2022/01/06 02:25:18;;;;;;;11.50;0.95;;;3.10;99.90;;;;;;5084600;28;20151;-80
2022/01/06 02:27:47;;;;;;;12.82;0.77;;;3.10;99.90;;;;;;5065297;28;20380;-80
2022/01/06 02:30:13;;;;;;;9.85;1.38;;;3.10;99.90;;;;;;5066005;28;20054;-80
2022/01/06 02:32:39;;;;;;;20.45;4.28;;;3.40;99.90;;;;;;5064980;28;20105;-80
2022/01/06 02:35:13;;;;;;;14.15;1.40;;;3.10;99.90;;;;;;5083841;28;20032;-80
2022/01/06 02:37:39;;;;;;;12.95;1.00;;;3.20;99.90;;;;;;5083855;28;20087;-80
2022/01/06 02:40:16;;;;;;;13.68;1.52;;;3.80;99.90;;;;;;5083394;28;20117;-80
2022/01/06 02:42:45;;;;;;;10.13;1.15;;;3.30;99.90;;;;;;5084221;28;20044;-80
2022/01/06 02:45:11;;;;;;;13.88;1.25;;;3.30;99.90;;;;;;5083160;28;20040;-80
2022/01/06 02:47:39;;;;;;;12.80;1.70;;;1.60;99.90;;;;;;5083692;28;20044;-80
2022/01/06 02:50:06;;;;;;;11.82;1.95;;;3.90;99.90;;;;;;5083410;28;20220;-80
2022/01/06 02:52:32;;;;;;;13.45;2.85;;;3.30;99.90;;;;;;5048095;28;20549;-80
2022/01/06 02:54:58;;;;;;;15.02;1.42;;;3.20;99.90;;;;;;5083853;28;20056;-80
2022/01/06 02:57:24;;;;;;;15.75;1.17;;;3.20;99.90;;;;;;5064946;28;20101;-80
2022/01/06 02:59:49;;;;;;;12.25;1.88;;;3.10;99.90;;;;;;5084131;28;20391;-80
2022/01/06 03:02:15;;;;;;;7.22;1.25;;;3.10;99.90;;;;;;5082977;28;20525;-80
2022/01/06 03:04:41;;;;;;;10.35;1.58;;;3.00;99.90;;;;;;5083826;28;20097;-80
2022/01/06 03:07:08;;;;;;;11.55;1.75;;;3.00;99.90;;;;;;5064665;28;20040;-80
2022/01/06 03:09:39;;;;;;;9.63;1.42;;;2.90;99.90;;;;;;5083101;28;20055;-80
2022/01/06 03:12:11;;;;;;;16.63;1.63;;;4.50;99.90;;;;;;5083496;28;20047;-80
2022/01/06 03:14:37;;;;;;;12.00;2.08;;;2.90;99.90;;;;;;5086156;28;20439;-80
2022/01/06 03:17:04;;;;;;;6.38;1.10;;;2.80;99.90;;;;;;5087149;28;20495;-80
2022/01/06 03:19:30;;;;;;;21.40;1.85;;;4.30;99.90;;;;;;5068253;28;20059;-80
2022/01/06 03:21:56;;;;;;;13.48;1.38;;;2.80;99.90;;;;;;5086804;28;20040;-80
2022/01/06 03:24:21;;;;;;;15.63;1.30;;;2.70;99.90;;;;;;5052375;28;20452;-80
2022/01/06 03:26:47;;;;;;;9.23;1.10;;;3.90;99.90;;;;;;5068691;28;20078;-80
2022/01/06 03:29:14;;;;;;;14.68;1.85;;;2.60;99.90;;;;;;5069107;28;20040;-80
2022/01/06 03:31:39;;;;;;;15.57;1.40;;;2.50;99.90;;;;;;5051252;28;20085;-80
2022/01/06 03:34:05;;;;;;;19.23;1.35;;;2.40;99.90;;;;;;5068635;28;20043;-80
2022/01/06 03:36:31;;;;;;;17.75;1.38;;;2.30;99.90;;;;;;5068299;28;20075;-80
2022/01/06 03:38:56;;;;;;;12.15;1.50;;;2.30;99.90;;;;;;5086839;28;20434;-80
2022/01/06 03:41:22;;;;;;;14.00;2.03;;;2.20;99.90;;;;;;5086485;28;20039;-80
2022/01/06 03:43:48;;;;;;;8.88;1.35;;;3.50;99.90;;;;;;5067969;28;20047;-81
2022/01/06 03:46:13;;;;;;;12.63;1.50;;;2.20;99.90;;;;;;5086723;28;20055;-80
2022/01/06 03:48:39;;;;;;;12.10;1.27;;;3.40;99.90;;;;;;5017966;28;20131;-80
2022/01/06 03:51:05;;;;;;;11.30;1.20;;;2.00;99.90;;;;;;5087063;28;20127;-80
2022/01/06 03:53:30;;;;;;;12.63;1.40;;;2.00;99.90;;;;;;5067550;28;20560;-80
2022/01/06 03:55:56;;;;;;;14.45;1.30;;;1.90;99.90;;;;;;5068749;28;20044;-80
2022/01/06 03:58:22;;;;;;;10.45;1.48;;;2.50;99.90;;;;;;5051169;28;20568;-80
2022/01/06 04:00:47;;;;;;;10.57;1.10;;;1.80;99.90;;;;;;5067978;28;20039;-80
2022/01/06 04:03:14;;;;;;;7.30;1.30;;;2.10;99.90;;;;;;5068073;28;20074;-80
2022/01/06 04:05:39;;;;;;;15.13;1.48;;;1.60;99.90;;;;;;5067398;28;20048;-80
2022/01/06 04:08:05;;;;;;;16.13;1.23;;;1.60;99.90;;;;;;5051682;28;20044;-80
2022/01/06 04:10:31;;;;;;;11.07;1.55;;;1.50;99.90;;;;;;5033952;28;20043;-80
2022/01/06 04:12:57;;;;;;;16.55;1.10;;;1.50;99.90;;;;;;5051425;28;20046;-80
2022/01/06 04:15:25;;;;;;;15.20;1.45;;;1.50;99.90;;;;;;5051119;28;20040;-80
2022/01/06 04:17:51;;;;;;;12.55;1.38;;;1.40;99.90;;;;;;5051581;28;20093;-80
2022/01/06 04:20:17;;;;;;;12.68;1.45;;;3.10;99.90;;;;;;5051087;28;20036;-80
2022/01/06 04:22:44;;;;;;;7.75;1.10;;;1.50;99.90;;;;;;5067024;28;20052;-80
2022/01/06 04:25:10;;;;;;;7.75;1.48;;;2.90;99.90;;;;;;5068308;28;20177;-80
2022/01/06 04:27:36;;;;;;;28.83;1.80;;;1.50;99.90;;;;;;5050151;28;20059;-80
2022/01/06 04:30:05;;;;;;;19.90;1.10;;;1.50;99.90;;;;;;5067449;28;20104;-80
2022/01/06 04:32:31;;;;;;;22.45;2.30;;;1.40;99.90;;;;;;5050513;28;20044;-80
2022/01/06 04:34:58;;;;;;;18.88;1.83;;;1.40;99.90;;;;;;5033981;28;20047;-80
2022/01/06 04:37:25;;;;;;;9.82;1.40;;;1.40;99.90;;;;;;5050593;28;20056;-80
2022/01/06 04:39:50;;;;;;;10.30;2.05;;;1.40;99.90;;;;;;5050311;28;20143;-80
2022/01/06 04:42:16;;;;;;;10.57;1.42;;;1.40;99.90;;;;;;5067683;28;20083;-80
2022/01/06 04:44:42;;;;;;;14.10;1.17;;;1.30;99.90;;;;;;5067008;28;20044;-80
2022/01/06 04:47:08;;;;;;;11.93;1.13;;;1.30;99.90;;;;;;5067528;28;20040;-80
2022/01/06 04:49:33;;;;;;;14.50;1.55;;;1.20;99.90;;;;;;5050266;28;20044;-80
2022/01/06 04:51:59;;;;;;;12.02;0.85;;;1.20;99.90;;;;;;5050394;28;20096;-80
2022/01/06 04:54:25;;;;;;;25.35;2.50;;;1.20;99.90;;;;;;5067388;28;20396;-80
2022/01/06 04:56:50;;;;;;;11.15;1.45;;;2.00;99.90;;;;;;5067000;28;20054;-80
2022/01/06 04:59:16;;;;;;;15.27;1.85;;;3.10;99.90;;;;;;5050484;28;20036;-81
2022/01/06 05:01:41;;;;;;;21.67;1.83;;;1.30;99.90;;;;;;5066335;28;20434;-80
2022/01/06 05:04:07;;;;;;;14.88;1.75;;;1.30;99.90;;;;;;5067119;28;20052;-80
2022/01/06 05:06:33;;;;;;;18.33;1.88;;;1.20;99.90;;;;;;5033468;28;20131;-80
2022/01/06 05:08:59;;;;;;;12.75;1.88;;;2.40;99.90;;;;;;5066565;28;20047;-80
2022/01/06 05:11:24;;;;;;;9.77;1.88;;;1.20;99.90;;;;;;5066967;28;20044;-80
2022/01/06 05:13:50;;;;;;;12.65;1.52;;;1.10;99.90;;;;;;5049845;28;20044;-80
2022/01/06 05:16:18;;;;;;;18.92;1.40;;;1.10;99.90;;;;;;5034328;28;20384;-80
2022/01/06 05:18:44;;;;;;;8.50;1.30;;;1.10;99.90;;;;;;5065772;28;20044;-80
2022/01/06 05:21:09;;;;;;;9.75;1.08;;;2.60;99.90;;;;;;5050166;28;20093;-80
2022/01/06 05:23:36;;;;;;;14.68;1.52;;;1.00;99.90;;;;;;5065797;28;20067;-80
2022/01/06 05:26:02;;;;;;;17.35;1.52;;;1.00;99.90;;;;;;5066629;28;20126;-80
2022/01/06 05:28:28;;;;;;;7.93;1.77;;;0.90;99.90;;;;;;5066876;28;20032;-80
2022/01/06 05:30:53;;;;;;;27.23;2.40;;;0.90;99.90;;;;;;5065862;28;20513;-80
2022/01/06 05:33:19;;;;;;;12.48;1.75;;;0.80;99.90;;;;;;5066929;28;20063;-80
2022/01/06 05:35:45;;;;;;;8.00;1.50;;;0.80;99.90;;;;;;5065467;28;20127;-81
2022/01/06 05:38:11;;;;;;;17.38;1.63;;;0.70;99.90;;;;;;5066879;28;20036;-81
2022/01/06 05:40:37;;;;;;;22.38;2.05;;;0.70;99.90;;;;;;5065500;28;20036;-81
2022/01/06 05:43:03;;;;;;;14.60;1.55;;;0.70;99.90;;;;;;5084472;28;20048;-81
2022/01/06 05:45:31;;;;;;;15.70;1.92;;;0.70;99.90;;;;;;5066162;28;20475;-79
2022/01/06 05:47:57;;;;;;;15.82;1.75;;;0.70;99.90;;;;;;5049582;28;20141;-79
2022/01/06 05:50:23;;;;;;;11.40;1.50;;;0.60;99.90;;;;;;5066108;28;20127;-79
2022/01/06 05:52:48;;;;;;;8.80;1.20;;;0.60;99.90;;;;;;5064940;28;20399;-79
2022/01/06 05:55:14;;;;;;;7.40;1.25;;;0.60;99.90;;;;;;5050101;28;20411;-79
2022/01/06 05:57:40;;;;;;;11.90;1.38;;;0.50;99.90;;;;;;5065758;28;20054;-79
2022/01/06 06:00:07;;;;;;;7.25;1.88;;;0.50;99.90;;;;;;5066433;28;20548;-80
2022/01/06 06:02:33;;;;;;;6.40;1.55;;;0.50;99.90;;;;;;5065649;28;20578;-79
2022/01/06 06:04:59;;;;;;;16.77;1.42;;;0.40;99.90;;;;;;5065996;28;20042;-79
2022/01/06 06:07:25;;;;;;;6.03;1.20;;;0.40;99.90;;;;;;5049467;28;20540;-79
2022/01/06 06:09:51;;;;;;;9.40;1.52;;;0.40;99.90;;;;;;5065380;28;20036;-79
2022/01/06 06:12:17;;;;;;;11.00;1.27;;;0.40;99.90;;;;;;5065926;28;20044;-79
2022/01/06 06:14:43;;;;;;;7.18;1.40;;;0.40;99.90;;;;;;5048883;28;20048;-79
2022/01/06 06:17:09;;;;;;;14.55;1.33;;;0.40;99.90;;;;;;5049327;28;20044;-79
2022/01/06 06:19:35;;;;;;;11.10;2.67;;;0.40;99.90;;;;;;5048309;28;20083;-79
2022/01/06 06:22:01;;;;;;;11.80;1.42;;;0.40;99.90;;;;;;5032188;28;20048;-79
2022/01/06 06:24:27;;;;;;;14.40;1.25;;;0.40;99.90;;;;;;5082391;28;20063;-79
2022/01/06 06:26:53;;;;;;;11.93;1.38;;;0.40;99.90;;;;;;5048413;28;20040;-79
2022/01/06 06:29:19;;;;;;;5.70;1.15;;;0.40;99.90;;;;;;5049974;28;20075;-79
2022/01/06 06:31:46;;;;;;;12.20;1.90;;;0.40;99.90;;;;;;5048567;28;20060;-78
2022/01/06 06:34:11;;;;;;;11.88;1.60;;;0.40;99.90;;;;;;5065392;28;20044;-79
2022/01/06 06:36:37;;;;;;;8.75;1.40;;;0.30;99.90;;;;;;5064948;28;20055;-80
2022/01/06 06:39:04;;;;;;;10.13;2.65;;;0.30;99.90;;;;;;5048662;28;20039;-81
2022/01/06 06:41:29;;;;;;;12.77;1.95;;;0.30;99.90;;;;;;5065205;28;20134;-80
2022/01/06 06:43:55;;;;;;;15.25;1.55;;;0.30;99.90;;;;;;5048372;28;20127;-80
2022/01/06 06:46:21;;;;;;;8.88;1.20;;;0.30;99.90;;;;;;5084163;28;20040;-80
2022/01/06 06:48:47;;;;;;;12.98;1.35;;;0.30;99.90;;;;;;5084976;28;20055;-80
2022/01/06 06:51:14;;;;;;;10.07;1.05;;;0.30;99.90;;;;;;5070048;28;20036;-80
2022/01/06 06:53:41;;;;;;;16.38;1.10;;;-0.70;99.90;;;;;;5087100;28;20040;-80
2022/01/06 06:56:07;;;;;;;11.07;1.40;;;0.30;99.90;;;;;;5087673;28;20233;-80
2022/01/06 06:58:32;;;;;;;8.30;1.42;;;1.80;99.90;;;;;;5087597;28;20378;-80
2022/01/06 07:00:58;;;;;;;3.05;1.05;;;0.20;99.90;;;;;;5068438;28;20121;-80
2022/01/06 07:03:24;;;;;;;8.82;1.15;;;0.20;99.90;;;;;;5088029;28;20040;-80
2022/01/06 07:05:49;;;;;;;17.60;1.38;;;0.20;99.90;;;;;;5087109;28;20062;-80
2022/01/06 07:08:15;;;;;;;10.77;1.30;;;0.10;99.90;;;;;;5068930;28;20051;-80
2022/01/06 07:10:42;;;;;;;10.38;1.20;;;0.10;99.90;;;;;;5068087;28;20043;-80
2022/01/06 07:13:08;;;;;;;11.57;1.60;;;1.70;99.90;;;;;;5052391;28;20048;-80
2022/01/06 07:15:36;;;;;;;7.47;1.10;;;0.00;99.90;;;;;;5069070;28;20059;-80
2022/01/06 07:18:02;;;;;;;13.95;1.60;;;0.00;99.90;;;;;;5068879;28;20106;-80
2022/01/06 07:20:28;;;;;;;7.35;1.27;;;0.00;99.90;;;;;;5087820;28;20072;-80
2022/01/06 07:22:54;;;;;;;17.17;2.05;;;0.00;99.90;;;;;;5086254;28;20052;-80
2022/01/06 07:25:21;;;;;;;14.60;1.60;;;0.10;99.90;;;;;;5087615;28;20086;-80
2022/01/06 07:27:47;;;;;;;11.05;1.20;;;0.10;99.90;;;;;;5086579;28;20047;-80
2022/01/06 07:30:13;;;;;;;18.60;2.20;;;0.20;99.90;;;;;;5086877;28;20043;-79
2022/01/06 07:32:46;;;;;;;9.82;1.70;;;0.30;99.90;;;;;;5086801;28;20057;-79
2022/01/06 07:35:12;;;;;;;;;;;0.30;99.90;;;;;;5087113;28;20469;-79
2022/01/06 07:37:37;;;;;;;10.63;1.30;;;0.40;99.90;;;;;;5087068;28;19920;-79
2022/01/06 07:40:04;;;;;;;10.38;1.88;;;0.40;99.90;;;;;;5051628;28;20040;-79
2022/01/06 07:42:30;;;;;;;15.73;1.63;;;0.40;99.90;;;;;;5068458;28;20052;-79
2022/01/06 07:44:59;;;;;;;10.32;1.92;;;0.50;99.90;;;;;;5051339;28;20036;-79
2022/01/06 07:47:24;;;;;;;12.32;1.83;;;0.50;99.90;;;;;;5086251;28;20047;-79
2022/01/06 07:49:50;;;;;;;13.98;1.50;;;0.50;99.90;;;;;;5086775;28;20407;-79
2022/01/06 07:52:16;;;;;;;15.82;1.98;;;0.50;99.90;;;;;;5086236;28;20531;-79
2022/01/06 07:54:41;;;;;;;23.88;2.30;;;0.50;99.90;;;;;;5086962;28;20044;-79
2022/01/06 07:57:08;;;;;;;12.15;1.52;;;0.60;99.90;;;;;;5085533;28;20054;-79
2022/01/06 07:59:34;;;;;;;11.02;1.30;;;1.50;99.90;;;;;;5085923;28;20510;-79
2022/01/06 08:01:59;;;;;;;16.58;1.83;;;1.20;99.90;;;;;;5085987;28;20044;-79
2022/01/06 08:04:25;;;;;;;4.30;1.23;;;0.60;99.90;;;;;;5050692;28;20044;-79
2022/01/06 08:06:51;;;;;;;14.05;1.42;;;0.60;99.90;;;;;;5051903;28;20121;-80
2022/01/06 08:09:16;;;;;;;16.23;2.22;;;0.80;99.90;;;;;;5086062;28;20047;-80
2022/01/06 08:11:42;;;;;;;16.42;2.22;;;0.80;99.90;;;;;;5086466;28;20333;-79
2022/01/06 08:14:08;;;;;;;17.70;1.45;;;2.40;99.90;;;;;;5085447;28;20459;-80
2022/01/06 08:16:33;;;;;;;11.38;2.67;;;1.70;99.90;;;;;;5068375;28;20044;-80
2022/01/06 08:18:59;;;;;;;9.43;1.60;;;1.40;99.90;;;;;;5085768;28;20533;-80
2022/01/06 08:21:25;;;;;;;11.75;1.23;;;1.60;99.90;;;;;;5086145;28;20040;-80
2022/01/06 08:23:51;;;;;;;20.02;2.63;;;1.70;99.90;;;;;;5050878;28;20055;-80
2022/01/06 08:26:16;;;;;;;20.95;2.45;;;1.90;99.90;;;;;;5034029;28;20039;-80
2022/01/06 08:28:46;;;;;;;30.45;1.90;;;2.00;99.90;;;;;;5067576;28;20044;-80
2022/01/06 08:31:13;;;;;;;18.63;1.52;;;2.10;99.90;;;;;;5066640;28;20044;-80
2022/01/06 08:33:39;;;;;;;10.52;1.75;;;2.70;99.90;;;;;;5051237;28;20044;-80
2022/01/06 08:36:06;;;;;;;15.85;2.50;;;2.10;99.90;;;;;;5067008;28;20122;-80
2022/01/06 08:38:32;;;;;;;13.18;1.98;;;2.10;99.90;;;;;;5067059;28;20044;-80
2022/01/06 08:40:57;;;;;;;15.80;1.80;;;3.70;99.90;;;;;;5067677;28;20043;-80
2022/01/06 08:43:27;;;;;;;12.38;1.50;;;2.00;99.90;;;;;;5066480;28;20099;-80
2022/01/06 08:45:57;;;;;;;10.77;1.73;;;2.00;99.90;;;;;;5067989;28;20395;-80
2022/01/06 08:48:27;;;;;;;13.90;1.10;;;1.90;99.90;;;;;;5066148;28;20044;-80
2022/01/06 08:50:53;;;;;;;10.52;2.00;;;3.40;99.90;;;;;;5050805;28;20044;-81
2022/01/06 08:53:19;;;;;;;22.25;2.70;;;1.80;99.90;;;;;;5016816;28;20048;-81
2022/01/06 08:55:46;;;;;;;8.10;1.88;;;1.80;99.90;;;;;;5050772;28;20051;-81
2022/01/06 08:58:16;;;;;;;12.95;1.95;;;1.80;99.90;;;;;;5034710;28;20387;-80
2022/01/06 09:00:43;;;;;;;7.70;1.95;;;1.70;99.90;;;;;;5066452;28;20048;-80
2022/01/06 09:03:09;;;;;;;17.38;1.70;;;2.60;99.90;;;;;;5085632;28;20106;-80
2022/01/06 09:05:38;;;;;;;12.25;1.40;;;2.50;99.90;;;;;;5082972;28;20048;-80
2022/01/06 09:08:05;;;;;;;15.05;2.72;;;1.70;99.90;;;;;;5050620;28;20406;-81
2022/01/06 09:10:33;;;;;;;19.17;2.13;;;1.70;99.90;;;;;;5065846;28;20052;-81
2022/01/06 09:13:02;;;;;;;12.38;2.72;;;2.20;99.90;;;;;;5050267;28;20390;-80
2022/01/06 09:15:28;;;;;;;15.02;2.05;;;1.80;99.90;;;;;;5050929;28;20047;-80
2022/01/06 09:17:53;;;;;;;20.08;1.98;;;2.90;99.90;;;;;;5083812;28;20040;-80
2022/01/06 09:20:20;;;;;;;16.27;2.60;;;2.80;99.90;;;;;;5066991;28;20036;-80
2022/01/06 09:22:45;;;;;;;24.45;3.08;;;2.00;99.90;;;;;;5048847;28;20123;-80
2022/01/06 09:25:13;;;;;;;20.88;3.25;;;2.10;99.90;;;;;;5033755;28;20147;-80
2022/01/06 09:27:41;;;;;;;22.67;3.80;;;2.20;99.90;;;;;;5066033;28;20104;-80
2022/01/06 09:30:09;;;;;;;10.43;2.33;;;2.30;99.90;;;;;;5066302;28;20055;-80
2022/01/06 09:32:35;;;;;;;19.27;2.80;;;2.30;99.90;;;;;;5050067;28;20055;-80
2022/01/06 09:35:01;;;;;;;18.92;2.10;;;2.40;99.90;;;;;;5084270;28;20048;-80
2022/01/06 09:37:27;;;;;;;17.13;2.28;;;2.50;99.90;;;;;;5084994;28;20044;-80
2022/01/06 09:39:53;;;;;;;11.88;1.60;;;2.50;99.90;;;;;;5082159;28;20140;-80
2022/01/06 09:42:20;;;;;;;26.02;2.13;;;3.90;99.90;;;;;;5031326;28;20065;-80
2022/01/06 09:44:50;;;;;;;20.25;2.30;;;2.70;99.90;;;;;;5032720;28;20036;-80
2022/01/06 09:47:17;;;;;;;13.57;1.73;;;2.80;99.90;;;;;;5066022;28;20077;-80
2022/01/06 09:49:44;;;;;;;19.80;2.78;;;4.70;99.90;;;;;;5066049;28;20122;-80
2022/01/06 09:52:11;;;;;;;19.58;2.30;;;3.00;99.90;;;;;;5048384;28;20141;-80
2022/01/06 09:54:38;;;;;;;20.88;2.17;;;3.00;99.90;;;;;;5049773;28;20610;-80
2022/01/06 09:57:05;;;;;;;13.45;1.80;;;3.10;99.90;;;;;;5049461;28;20418;-81
2022/01/06 09:59:32;;;;;;;17.10;2.33;;;3.20;99.90;;;;;;5066032;28;20059;-80
2022/01/06 10:02:01;;;;;;;12.43;1.73;;;3.30;99.90;;;;;;5084192;28;20052;-81
2022/01/06 10:04:28;;;;;;;18.90;2.40;;;5.00;99.90;;;;;;5066298;28;20085;-79
2022/01/06 10:07:09;;;;;;;18.20;2.75;;;3.50;99.90;;;;;;5066612;28;20046;-80
2022/01/06 10:09:39;;;;;;;18.17;1.75;;;3.70;99.90;;;;;;5064571;28;20045;-79
2022/01/06 10:12:10;;;;;;;13.00;1.48;;;3.80;99.90;;;;;;5084320;28;20975;-79
2022/01/06 10:14:42;;;;;;;18.30;2.22;;;3.90;99.90;;;;;;5082614;28;20040;-78
2022/01/06 10:17:09;;;;;;;13.88;2.03;;;4.90;99.90;;;;;;5083540;28;20079;-78
2022/01/06 10:19:40;;;;;;;18.92;2.47;;;4.00;99.90;;;;;;5084226;28;20083;-78
2022/01/06 10:22:11;;;;;;;16.33;2.17;;;5.30;99.90;;;;;;5065036;28;20044;-79
2022/01/06 10:24:37;;;;;;;16.20;2.15;;;4.20;99.90;;;;;;5065389;28;20117;-79
2022/01/06 10:27:06;;;;;;;18.20;2.55;;;4.20;99.90;;;;;;5065415;28;20045;-79
2022/01/06 10:29:44;;;;;;;15.20;1.90;;;4.30;99.90;;;;;;5049164;28;20044;-79
2022/01/06 10:32:13;;;;;;;13.82;2.25;;;4.40;99.90;;;;;;5083525;28;20048;-79
2022/01/06 10:35:02;;;;;;;15.73;2.08;;;4.50;99.90;;;;;;5048129;28;20122;-78
2022/01/06 10:37:34;;;;;;;11.27;1.77;;;4.60;99.90;;;;;;5082154;28;20441;-79
2022/01/06 10:40:06;;;;;;;14.63;1.73;;;5.60;99.90;;;;;;5062788;28;20077;-79
2022/01/06 10:42:34;;;;;;;7.15;1.55;;;4.80;99.90;;;;;;5045655;28;20135;-79
2022/01/06 10:45:10;;;;;;;22.83;3.13;;;5.50;99.90;;;;;;5084040;28;20123;-79
2022/01/06 10:47:48;;;;;;;16.17;3.17;;;4.80;99.90;;;;;;5065475;28;20135;-79
2022/01/06 10:50:27;;;;;;;21.55;4.45;;;4.80;99.90;;;;;;5084309;28;20044;-79
2022/01/06 10:52:53;;;;;;;25.38;3.17;;;4.90;99.90;;;;;;5065233;28;20085;-79
2022/01/06 10:55:26;;;;;;;18.65;2.67;;;5.00;99.90;;;;;;5065179;28;20044;-79
2022/01/06 10:57:55;;;;;;;6.47;2.53;;;5.60;99.90;;;;;;5065247;28;20055;-79
2022/01/06 11:00:30;;;;;;;18.38;4.07;;;7.00;99.90;;;;;;5064177;28;20070;-79
2022/01/06 11:03:13;;;;;;;15.13;2.22;;;5.30;99.90;;;;;;5064785;28;20711;-79
2022/01/06 11:05:45;;;;;;;13.98;2.08;;;5.40;99.90;;;;;;5047963;28;20639;-79
2022/01/06 11:08:13;;;;;;;11.93;1.92;;;5.50;99.90;;;;;;5046326;28;20056;-79
2022/01/06 11:10:46;;;;;;;16.65;2.33;;;5.50;99.90;;;;;;5064457;28;20051;-79
2022/01/06 11:13:12;;;;;;;;;;;5.50;99.90;;;;;;5063479;28;20126;-79
2022/01/06 11:15:37;;;;;;;13.93;2.45;;;5.10;99.90;;;;;;5063397;28;20356;-78
2022/01/06 11:18:05;;;;;;;10.23;2.00;;;5.60;99.90;;;;;;5029357;28;20044;-79
2022/01/06 11:20:31;;;;;;;13.30;2.17;;;5.60;99.90;;;;;;5049025;28;20052;-79
2022/01/06 11:22:59;;;;;;;10.35;2.13;;;5.60;99.90;;;;;;5046777;28;20041;-79
2022/01/06 11:25:37;;;;;;;13.15;2.35;;;5.60;99.90;;;;;;5047679;28;20402;-79
2022/01/06 11:28:11;;;;;;;21.27;2.28;;;5.60;99.90;;;;;;5046749;28;20503;-79
2022/01/06 11:30:52;;;;;;;13.43;2.03;;;5.70;99.90;;;;;;5045927;28;20047;-79
2022/01/06 11:33:18;;;;;;;16.83;1.80;;;5.70;99.90;;;;;;5046155;28;20487;-79
2022/01/06 11:35:55;;;;;;;14.20;1.98;;;5.70;99.90;;;;;;5066522;28;20044;-79
2022/01/06 11:38:26;;;;;;;18.13;2.58;;;5.80;99.90;;;;;;5068017;28;20040;-79
2022/01/06 11:41:09;;;;;;;17.42;1.75;;;5.80;99.90;;;;;;5068411;28;20047;-78
2022/01/06 11:43:40;;;;;;;16.25;2.10;;;5.90;99.90;;;;;;5067995;28;20048;-79
2022/01/06 11:46:06;;;;;;;11.75;2.55;;;6.00;99.90;;;;;;5067546;28;20051;-79
2022/01/06 11:48:32;;;;;;;20.58;2.92;;;6.00;99.90;;;;;;5086137;28;20040;-79
2022/01/06 11:50:58;;;;;;;19.67;2.38;;;6.00;99.90;;;;;;5068497;28;20109;-78
2022/01/06 11:53:32;;;;;;;15.35;1.67;;;6.00;99.90;;;;;;5068726;28;20735;-79
2022/01/06 11:55:59;;;;;;;11.13;2.05;;;6.10;99.90;;;;;;5051282;28;20063;-79
2022/01/06 11:58:25;;;;;;;6.38;1.60;;;6.20;99.90;;;;;;5086922;28;20044;-79
2022/01/06 12:00:55;;;;;;;15.68;2.55;;;6.50;99.90;;;;;;5085092;28;20075;-79
2022/01/06 12:03:21;;;;;;;16.08;2.03;;;5.00;99.90;;;;;;5065351;28;20056;-79
2022/01/06 12:05:54;;;;;;;12.48;2.55;;;6.30;99.90;;;;;;5065738;28;20051;-79
2022/01/06 12:08:33;;;;;;;9.85;1.65;;;6.40;99.90;;;;;;5086415;28;20488;-79
2022/01/06 12:10:58;;;;;;;14.25;2.10;;;6.40;99.90;;;;;;5086679;28;20032;-79
2022/01/06 12:13:24;;;;;;;10.77;2.55;;;6.50;99.90;;;;;;5084961;28;20052;-79
2022/01/06 12:15:56;;;;;;;14.05;1.90;;;6.50;99.90;;;;;;5066568;28;20206;-79
2022/01/06 12:18:29;;;;;;;10.77;2.22;;;6.60;99.90;;;;;;5064951;28;20059;-79
2022/01/06 12:20:56;;;;;;;;;;;8.10;99.90;;;;;;5051993;28;20344;-79
2022/01/06 12:23:22;;;;;;;19.20;2.53;;;8.30;99.90;;;;;;5066770;28;20040;-81
2022/01/06 12:26:08;;;;;;;14.15;1.58;;;7.00;99.90;;;;;;5066040;28;20063;-79
2022/01/06 12:28:43;;;;;;;12.52;1.95;;;6.70;99.90;;;;;;5084454;28;20044;-79
2022/01/06 12:31:09;;;;;;;16.50;2.00;;;8.40;99.90;;;;;;5068780;28;20048;-80
2022/01/06 12:33:43;;;;;;;15.48;2.00;;;6.70;99.90;;;;;;5067733;28;20043;-79
2022/01/06 12:36:09;;;;;;;11.13;1.88;;;7.60;99.90;;;;;;5067818;28;20067;-77
2022/01/06 12:38:37;;;;;;;16.77;2.85;;;6.80;99.90;;;;;;5084834;28;20036;-76
2022/01/06 12:41:03;;;;;;;16.95;1.50;;;6.80;99.90;;;;;;5085056;28;20048;-76
2022/01/06 12:43:31;;;;;;;21.67;2.88;;;6.80;99.90;;;;;;5084853;28;20104;-76
2022/01/06 12:46:07;;;;;;;7.82;1.45;;;6.80;99.90;;;;;;5085044;28;20462;-80
2022/01/06 12:48:40;;;;;;;12.20;1.70;;;6.90;99.90;;;;;;5066509;28;20313;-79
2022/01/06 12:51:09;;;;;;;13.77;1.58;;;6.50;99.90;;;;;;5066821;28;20051;-81
2022/01/06 12:53:43;;;;;;;16.83;2.55;;;6.80;99.90;;;;;;5050582;28;20048;-76
2022/01/06 12:56:24;;;;;;;20.00;2.30;;;6.90;99.90;;;;;;5066084;28;20044;-77
2022/01/06 12:58:51;;;;;;;14.55;2.17;;;6.90;99.90;;;;;;5067133;28;20071;-78
2022/01/06 13:01:17;;;;;;;11.38;2.42;;;6.80;99.90;;;;;;5084158;28;20052;-78